Flight Track Log - Related Links

Times and Time Zones

All times are in EDT time to prevent confusion due to time zone crossing. See the SKW5631 flight status page for this flight to view local times or setup timezone preferences in your user account.

Time Position Orientation Groundspeed Altitude Reporting Facility
EDT Latitude Longitude Course Direction KTS MPH feet Rate Location/Type
Sat 09:16:14 PM 37.6333 -122.3500 North 173 199 1,200  Level Northern Cal TRACON
Sat 09:17:21 PM 37.6739 -122.3039 42° Northeast 217 250 3,200 1,828 Climbing Oakland Center
Sat 09:18:22 PM 37.7272 -122.2389 44° Northeast 258 297 5,100 2,115 Climbing Oakland Center
Sat 09:19:00 PM 37.6838 -122.3592 North  Level FlightAware Approximate
Sat 09:19:23 PM 37.7989 -122.2081 19° North 276 318 7,500  Level Oakland Center
Sat 09:20:00 PM 37.8098 -122.3500 North  Level FlightAware Approximate
Sat 09:20:24 PM 37.8778 -122.2089 360° North 283 326 10,000  Level Oakland Center
Sat 09:21:00 PM 37.9361 -122.3500 North  Level FlightAware Approximate
Sat 09:21:25 PM 37.9742 -122.2094 360° North 291 335 12,800  Level Oakland Center
Sat 09:22:26 PM 38.0567 -122.2100 360° North 295 339 15,100 1,869 Climbing Oakland Center
Sat 09:23:27 PM 38.1414 -122.2106 360° North 305 351 16,600 1,525 Climbing Oakland Center
Sat 09:24:28 PM 38.2336 -122.2111 360° North 327 376 18,200 1,525 Climbing Oakland Center
Sat 09:25:29 PM 38.3278 -122.2128 359° North 337 388 19,700 1,426 Climbing Oakland Center
Sat 09:26:30 PM 38.4286 -122.2147 359° North 362 417 21,100 1,377 Climbing Oakland Center
Sat 09:27:31 PM 38.5331 -122.2156 360° North 376 433 22,500 1,328 Climbing Oakland Center
Sat 09:28:32 PM 38.6397 -122.2183 359° North 384 442 23,800 1,180 Climbing Oakland Center
Sat 09:29:33 PM 38.7542 -122.2197 359° North 394 453 24,900 1,033 Climbing Oakland Center
Sat 09:30:34 PM 38.8703 -122.2206 360° North 411 473 25,900 1,033 Climbing Oakland Center
Sat 09:31:35 PM 38.9867 -122.2233 359° North 415 478 27,000 1,041 Climbing Oakland Center
Sat 09:32:35 PM 39.1058 -122.2228 360° North 423 487 28,000 992 Climbing Oakland Center
Sat 09:33:36 PM 39.2256 -122.2256 359° North 427 491 29,000 984 Climbing Oakland Center
Sat 09:34:37 PM 39.3458 -122.2267 360° North 431 496 30,000 984 Climbing Oakland Center
Sat 09:35:38 PM 39.4658 -122.2294 359° North 430 495 31,000 984 Climbing Oakland Center
Sat 09:36:39 PM 39.5958 -122.2294 360° North 428 493 32,000 492 Climbing Oakland Center
Sat 09:37:40 PM 39.7167 -122.2203 North 434 499 32,000  Level Oakland Center
Sat 09:38:41 PM 39.8367 -122.1611 21° North 459 528 32,000 295 Level Oakland Center
Sat 09:39:42 PM 39.9519 -122.1008 22° Northeast 452 520 32,600 492 Climbing Oakland Center
Sat 09:40:43 PM 40.0900 -122.0286 22° Northeast 452 520 33,000 197 Climbing Oakland Center
Sat 09:41:44 PM 40.2086 -121.9664 22° Northeast 465 535 33,000  Level Oakland Center
Sat 09:42:45 PM 40.3256 -121.9061 21° North 459 528 33,000  Level Oakland Center
Sat 09:43:46 PM 40.4378 -121.8467 22° Northeast 444 511 33,000  Level Oakland Center
Sat 09:44:47 PM 40.5506 -121.7867 22° Northeast 441 507 33,000  Level Oakland Center
Sat 09:45:48 PM 40.6667 -121.7261 22° Northeast 448 516 33,000  Level Oakland Center
Sat 09:46:49 PM 40.7814 -121.6650 22° Northeast 448 516 33,000  Level Oakland Center
Sat 09:47:30 PM 40.8761 -121.6158 21° North 452 520 33,000  Level Seattle Center
Sat 09:48:31 PM 40.9836 -121.5597 22° Northeast 449 517 33,000  Level Seattle Center
Sat 09:49:32 PM 41.1014 -121.4961 22° Northeast 455 524 33,000  Level Seattle Center
Sat 09:49:52 PM 41.1478 -121.4675 25° Northeast 458 527 33,000  Level Oakland Center
Sat 09:50:53 PM 41.2653 -121.4042 22° Northeast 458 527 33,000  Level Oakland Center
Sat 09:51:33 PM 41.3367 -121.3675 21° North 459 528 33,000  Level Seattle Center
Sat 09:52:34 PM 41.4542 -121.3042 22° Northeast 458 527 33,000  Level Seattle Center
Sat 09:53:34 PM 41.5722 -121.2383 23° Northeast 461 531 33,000  Level Seattle Center
Sat 09:54:35 PM 41.6897 -121.1722 23° Northeast 461 531 33,000  Level Seattle Center
Sat 09:55:35 PM 41.8081 -121.1061 23° Northeast 462 532 33,000  Level Seattle Center
Sat 09:56:36 PM 41.9492 -121.0289 22° Northeast 460 529 33,000  Level Seattle Center
Sat 09:57:37 PM 42.0669 -120.9622 23° Northeast 461 531 33,000  Level Seattle Center
Sat 09:58:37 PM 42.1844 -120.8969 22° Northeast 459 528 33,000  Level Seattle Center
Sat 09:59:38 PM 42.3014 -120.8289 23° Northeast 460 529 33,000  Level Seattle Center
Sat 10:00:39 PM 42.4192 -120.7622 23° Northeast 461 531 33,000  Level Seattle Center
Sat 10:01:39 PM 42.5381 -120.6956 22° Northeast 465 535 33,000  Level Seattle Center
Sat 10:02:40 PM 42.6553 -120.6272 23° Northeast 461 531 33,000  Level Seattle Center
Sat 10:03:40 PM 42.7722 -120.5619 22° Northeast 456 525 33,000  Level Seattle Center
Sat 10:04:41 PM 42.8881 -120.4953 23° Northeast 453 521 33,000  Level Seattle Center
Sat 10:05:42 PM 43.0033 -120.4272 23° Northeast 451 519 33,000  Level Seattle Center
Sat 10:06:42 PM 43.1169 -120.3622 23° Northeast 446 513 33,000  Level Seattle Center
Sat 10:07:43 PM 43.2286 -120.2978 23° Northeast 438 504 33,000  Level Seattle Center
Sat 10:08:43 PM 43.3397 -120.2333 23° Northeast 435 501 33,000 50 Level Seattle Center
Sat 10:09:44 PM 43.4497 -120.1664 24° Northeast 432 497 33,100 344 Climbing Seattle Center
Sat 10:10:45 PM 43.5817 -120.0911 22° Northeast 442 509 33,700 446 Climbing Seattle Center
Sat 10:11:45 PM 43.6958 -120.0219 24° Northeast 449 517 34,000 149 Climbing Seattle Center
Sat 10:12:46 PM 43.8122 -119.9539 23° Northeast 454 522 34,000  Level Seattle Center
Sat 10:13:47 PM 43.9261 -119.8858 23° Northeast 450 518 34,000  Level Seattle Center
Sat 10:14:47 PM 44.0361 -119.8189 24° Northeast 437 503 34,000  Level Seattle Center
Sat 10:15:48 PM 44.1478 -119.7542 23° Northeast 434 499 34,000  Level Seattle Center
Sat 10:16:48 PM 44.2592 -119.6867 23° Northeast 438 504 34,000  Level Seattle Center
Sat 10:17:49 PM 44.3725 -119.6192 23° Northeast 444 511 34,000  Level Seattle Center
Sat 10:18:50 PM 44.4864 -119.5486 24° Northeast 449 517 34,000  Level Seattle Center
Sat 10:19:50 PM 44.5997 -119.4797 23° Northeast 449 517 34,000  Level Seattle Center
Sat 10:20:51 PM 44.7150 -119.4097 23° Northeast 453 521 34,000  Level Seattle Center
Sat 10:21:52 PM 44.8281 -119.3392 24° Northeast 451 519 34,000 -248 Level Seattle Center
Sat 10:22:52 PM 44.9406 -119.2739 22° Northeast 444 511 33,500 -496 Descending Seattle Center
Sat 10:23:53 PM 45.0550 -119.2083 22° Northeast 445 512 33,000 -248 Descending Seattle Center
Sat 10:24:53 PM 45.1897 -119.1311 22° Northeast 441 507 33,000  Level Seattle Center
Sat 10:25:54 PM 45.3036 -119.0644 22° Northeast 443 510 33,000  Level Seattle Center
Sat 10:26:55 PM 45.4200 -118.9972 22° Northeast 450 518 33,000  Level Seattle Center
Sat 10:27:55 PM 45.5372 -118.9286 22° Northeast 455 524 33,000  Level Seattle Center
Sat 10:28:56 PM 45.6539 -118.8606 22° Northeast 455 524 33,000  Level Seattle Center
Sat 10:29:56 PM 45.7731 -118.7911 22° Northeast 462 532 33,000  Level Seattle Center
Sat 10:30:57 PM 45.8900 -118.7214 23° Northeast 459 528 33,000  Level Seattle Center
Sat 10:31:57 PM 46.0081 -118.6514 22° Northeast 460 529 33,000  Level Seattle Center
Sat 10:32:58 PM 46.1258 -118.5803 23° Northeast 463 533 33,000  Level Seattle Center
Sat 10:33:59 PM 46.2433 -118.5075 23° Northeast 462 532 33,000  Level Seattle Center
Sat 10:34:59 PM 46.3608 -118.4386 22° Northeast 460 529 33,000  Level Seattle Center
Sat 10:36:00 PM 46.4792 -118.3647 23° Northeast 464 534 33,000  Level Seattle Center
Sat 10:37:00 PM 46.5986 -118.2936 22° Northeast 465 535 33,000  Level Seattle Center
Sat 10:38:01 PM 46.7164 -118.2197 23° Northeast 462 532 33,000  Level Seattle Center
Sat 10:39:02 PM 46.8356 -118.1464 23° Northeast 464 534 33,000  Level Seattle Center
Sat 10:40:02 PM 46.9528 -118.0744 23° Northeast 460 529 33,000  Level Seattle Center
Sat 10:41:03 PM 47.0725 -118.0011 23° Northeast 463 533 33,000  Level Seattle Center
Sat 10:42:03 PM 47.1919 -117.9281 23° Northeast 465 535 33,000  Level Seattle Center
Sat 10:43:04 PM 47.3103 -117.8519 24° Northeast 464 534 33,000  Level Seattle Center
Sat 10:44:05 PM 47.4539 -117.7619 23° Northeast 464 534 33,000  Level Seattle Center
Sat 10:45:05 PM 47.5736 -117.6856 23° Northeast 466 536 33,000  Level Seattle Center
Sat 10:46:06 PM 47.6942 -117.6094 23° Northeast 466 536 33,000  Level Seattle Center
Sat 10:47:06 PM 47.8150 -117.5314 23° Northeast 467 537 33,000  Level Seattle Center
Sat 10:48:07 PM 47.9375 -117.4528 23° Northeast 474 545 33,000  Level Seattle Center
Sat 10:49:08 PM 48.0581 -117.3750 23° Northeast 472 543 33,000  Level Seattle Center
Sat 10:50:08 PM 48.1783 -117.2978 23° Northeast 470 541 33,000  Level Seattle Center
Sat 10:51:09 PM 48.2972 -117.2183 24° Northeast 469 540 33,000  Level Seattle Center
Sat 10:52:09 PM 48.4144 -117.1411 24° Northeast 463 533 33,000  Level Seattle Center
Sat 10:53:10 PM 48.5322 -117.0628 24° Northeast 461 531 33,000  Level Seattle Center
Sat 10:54:10 PM 48.6492 -116.9867 23° Northeast 460 529 33,000  Level Seattle Center
Sat 10:55:11 PM 48.7669 -116.9064 24° Northeast 463 533 33,000  Level Seattle Center
Sat 10:56:11 PM 48.8858 -116.8269 24° Northeast 466 536 33,000  Level Seattle Center
Sat 10:57:12 PM 48.9917 -116.7572 23° Northeast 463 533 33,000  Level Seattle Center
Sat 10:59:11 PM 49.2167 -116.5667 29° Northeast 470 541 33,000  Level Vancouver Center
Sat 11:00:11 PM 49.3333 -116.4833 25° Northeast 470 541 33,000  Level Vancouver Center
Sat 11:01:11 PM 49.4667 -116.4000 22° Northeast 470 541 33,000  Level Vancouver Center
Sat 11:02:11 PM 49.5833 -116.3167 25° Northeast 470 541 33,000  Level Vancouver Center
Sat 11:03:11 PM 49.7000 -116.2333 25° Northeast 470 541 33,000  Level Vancouver Center
Sat 11:04:11 PM 49.8167 -116.1500 25° Northeast 470 541 33,000  Level Vancouver Center
Sat 11:05:11 PM 49.9500 -116.0667 22° Northeast 470 541 33,000  Level Vancouver Center
Sat 11:06:11 PM 50.0500 -115.9833 28° Northeast 470 541 33,000  Level Vancouver Center
Sat 11:07:11 PM 50.1833 -115.8833 26° Northeast 470 541 33,000  Level Vancouver Center
Sat 11:08:11 PM 50.3000 -115.7833 29° Northeast 470 541 33,000  Level Vancouver Center
Sat 11:09:11 PM 50.4167 -115.7167 20° North 480 552 33,000  Level Vancouver Center
Sat 11:10:11 PM 50.5500 -115.6167 25° Northeast 490 564 33,000  Level Vancouver Center
Sat 11:11:11 PM 50.6667 -115.5500 20° North 490 564 33,000  Level Vancouver Center
Sat 11:12:11 PM 50.7833 -115.4333 32° Northeast 490 564 33,000  Level Vancouver Center
Sat 11:13:11 PM 50.9167 -115.3667 17° North 480 552 33,000  Level Vancouver Center
Sat 11:14:11 PM 51.0333 -115.2667 28° Northeast 470 541 33,000  Level Vancouver Center
Sat 11:15:11 PM 51.1333 -115.1833 28° Northeast 460 529 33,000  Level Vancouver Center
Sat 11:16:11 PM 51.2500 -115.0833 28° Northeast 450 518 33,000  Level Vancouver Center
Sat 11:17:11 PM 51.3833 -115.0167 17° North 460 529 33,000  Level Vancouver Center
Sat 11:18:11 PM 51.4833 -114.9333 27° Northeast 460 529 33,000  Level Vancouver Center
Sat 11:19:11 PM 51.6167 -114.8333 25° Northeast 460 529 33,000  Level Vancouver Center
Sat 11:20:11 PM 51.7333 -114.7500 24° Northeast 470 541 33,000  Level Vancouver Center
Sat 11:21:11 PM 51.8333 -114.6500 32° Northeast 470 541 33,000  Level Vancouver Center
Sat 11:22:11 PM 51.9667 -114.5667 21° North 470 541 33,000 -150 Level Vancouver Center
Sat 11:23:11 PM 52.0833 -114.4667 28° Northeast 470 541 32,700 -1,600 Descending Vancouver Center
Sat 11:24:11 PM 52.1833 -114.3833 27° Northeast 470 541 29,800 -3,000 Descending Vancouver Center
Sat 11:25:21 PM 52.3000 -114.3500 10° North 440 506 26,200 -3,092 Descending Edmonton Center
Sat 11:26:21 PM 52.4167 -114.2333 31° Northeast 430 495 23,100 -3,050 Descending Edmonton Center
Sat 11:27:21 PM 52.5000 -114.1167 40° Northeast 420 483 20,100 -3,300 Descending Edmonton Center
Sat 11:28:21 PM 52.6000 -114.0333 27° Northeast 410 472 16,500 -3,550 Descending Edmonton Center
Sat 11:29:21 PM 52.7000 -113.9000 39° Northeast 390 449 13,000 -3,050 Descending Edmonton Center
Sat 11:30:21 PM 52.7667 -113.8167 37° Northeast 370 426 10,400 -1,750 Descending Edmonton Center
Sat 11:31:21 PM 52.8500 -113.7500 26° Northeast 290 334 9,500 -1,200 Descending Edmonton Center
Sat 11:32:21 PM 52.9000 -113.7000 31° Northeast 250 288 8,000 -1,700 Descending Edmonton Center
Sat 11:33:21 PM 52.9667 -113.6500 24° Northeast 250 288 6,100 -1,500 Descending Edmonton Center
Sat 11:34:21 PM 53.0333 -113.6167 17° North 240 276 5,000 -550 Descending Edmonton Center
Sat 11:35:21 PM 53.1000 -113.5667 24° Northeast 210 242 5,000 -300 Level Edmonton Center
Sat 11:36:21 PM 53.1500 -113.5500 11° North 170 196 4,400 -550 Descending Edmonton Center
Sat 11:37:21 PM 53.1833 -113.5333 17° North 150 173 3,900 -500 Descending Edmonton Center

Login

Don't have an account? Register now (free) for customized features, flight alerts, and more!